sensor_id;sensor_type;location;lat;lon;timestamp;pressure;altitude;pressure_sealevel;temperature;humidity
59194;BME280;44967;48.598;15.650;2023-07-22T00:02:25;97889.91;;;18.61;60.15
59194;BME280;44967;48.598;15.650;2023-07-22T00:04:50;97899.03;;;18.59;60.04
59194;BME280;44967;48.598;15.650;2023-07-22T00:07:17;97898.72;;;18.63;59.68
59194;BME280;44967;48.598;15.650;2023-07-22T00:09:43;97904.28;;;18.60;59.79
59194;BME280;44967;48.598;15.650;2023-07-22T00:12:09;97904.38;;;18.59;59.87
59194;BME280;44967;48.598;15.650;2023-07-22T00:14:40;97910.44;;;18.48;60.06
59194;BME280;44967;48.598;15.650;2023-07-22T00:17:05;97913.22;;;18.47;60.21
59194;BME280;44967;48.598;15.650;2023-07-22T00:19:31;97911.69;;;18.43;60.12
59194;BME280;44967;48.598;15.650;2023-07-22T00:21:57;97907.09;;;18.32;60.12
59194;BME280;44967;48.598;15.650;2023-07-22T00:24:22;97916.63;;;18.36;60.55
59194;BME280;44967;48.598;15.650;2023-07-22T00:26:48;97919.09;;;18.39;60.11
59194;BME280;44967;48.598;15.650;2023-07-22T00:29:15;97924.19;;;18.29;60.39
59194;BME280;44967;48.598;15.650;2023-07-22T00:31:42;97916.94;;;18.31;60.02
59194;BME280;44967;48.598;15.650;2023-07-22T00:34:07;97929.00;;;18.24;60.36
59194;BME280;44967;48.598;15.650;2023-07-22T00:36:34;97919.91;;;18.27;60.16
59194;BME280;44967;48.598;15.650;2023-07-22T00:39:00;97917.16;;;18.28;60.00
59194;BME280;44967;48.598;15.650;2023-07-22T00:41:27;97916.16;;;18.29;59.86
59194;BME280;44967;48.598;15.650;2023-07-22T00:43:54;97925.34;;;18.25;59.96
59194;BME280;44967;48.598;15.650;2023-07-22T00:46:20;97922.03;;;18.22;60.31
59194;BME280;44967;48.598;15.650;2023-07-22T00:48:47;97933.16;;;18.16;60.34
59194;BME280;44967;48.598;15.650;2023-07-22T00:51:13;97944.06;;;18.13;60.64
59194;BME280;44967;48.598;15.650;2023-07-22T00:53:39;97941.03;;;18.05;60.83
59194;BME280;44967;48.598;15.650;2023-07-22T00:56:04;97943.06;;;18.01;60.74
59194;BME280;44967;48.598;15.650;2023-07-22T00:58:30;97943.16;;;18.00;60.97
59194;BME280;44967;48.598;15.650;2023-07-22T01:00:56;97940.38;;;18.01;60.74
59194;BME280;44967;48.598;15.650;2023-07-22T01:03:22;97942.19;;;18.01;60.83
59194;BME280;44967;48.598;15.650;2023-07-22T01:05:49;97934.19;;;18.01;60.43
59194;BME280;44967;48.598;15.650;2023-07-22T01:08:15;97933.31;;;18.00;60.29
59194;BME280;44967;48.598;15.650;2023-07-22T01:10:40;97947.41;;;17.89;60.65
59194;BME280;44967;48.598;15.650;2023-07-22T01:13:07;97947.88;;;17.82;61.03
59194;BME280;44967;48.598;15.650;2023-07-22T01:15:33;97938.38;;;17.90;60.29
59194;BME280;44967;48.598;15.650;2023-07-22T01:18:00;97945.66;;;17.88;60.52
59194;BME280;44967;48.598;15.650;2023-07-22T01:20:30;97945.03;;;17.85;60.60
59194;BME280;44967;48.598;15.650;2023-07-22T01:22:56;97947.56;;;17.86;60.74
59194;BME280;44967;48.598;15.650;2023-07-22T01:25:22;97956.56;;;17.85;60.83
59194;BME280;44967;48.598;15.650;2023-07-22T01:27:50;97962.38;;;17.78;61.35
59194;BME280;44967;48.598;15.650;2023-07-22T01:30:16;97963.16;;;17.80;61.37
59194;BME280;44967;48.598;15.650;2023-07-22T01:32:43;97966.69;;;17.80;61.78
59194;BME280;44967;48.598;15.650;2023-07-22T01:35:08;97968.06;;;17.73;62.38
59194;BME280;44967;48.598;15.650;2023-07-22T01:37:34;97966.41;;;17.57;62.81
59194;BME280;44967;48.598;15.650;2023-07-22T01:40:01;97968.31;;;17.55;63.06
59194;BME280;44967;48.598;15.650;2023-07-22T01:42:34;97968.72;;;17.49;63.43
59194;BME280;44967;48.598;15.650;2023-07-22T01:44:59;97981.69;;;17.55;62.88
59194;BME280;44967;48.598;15.650;2023-07-22T01:47:25;97977.81;;;17.60;62.72
59194;BME280;44967;48.598;15.650;2023-07-22T01:49:52;97993.16;;;17.57;62.70
59194;BME280;44967;48.598;15.650;2023-07-22T01:52:18;97992.56;;;17.52;62.82
59194;BME280;44967;48.598;15.650;2023-07-22T01:54:44;97994.19;;;17.54;62.71
59194;BME280;44967;48.598;15.650;2023-07-22T01:57:09;97993.34;;;17.54;62.88
59194;BME280;44967;48.598;15.650;2023-07-22T01:59:35;98000.13;;;17.59;62.53
59194;BME280;44967;48.598;15.650;2023-07-22T02:02:00;97994.78;;;17.59;62.69
59194;BME280;44967;48.598;15.650;2023-07-22T02:04:26;98002.72;;;17.61;62.73
59194;BME280;44967;48.598;15.650;2023-07-22T02:06:52;98012.34;;;17.63;62.34
59194;BME280;44967;48.598;15.650;2023-07-22T02:09:18;98003.28;;;17.66;62.52
59194;BME280;44967;48.598;15.650;2023-07-22T02:11:44;98007.78;;;17.65;62.49
59194;BME280;44967;48.598;15.650;2023-07-22T02:14:09;98020.06;;;17.68;62.27
59194;BME280;44967;48.598;15.650;2023-07-22T02:16:36;98016.81;;;17.63;62.47
59194;BME280;44967;48.598;15.650;2023-07-22T02:19:04;98010.06;;;17.57;62.97
59194;BME280;44967;48.598;15.650;2023-07-22T02:21:31;98012.91;;;17.68;62.49
59194;BME280;44967;48.598;15.650;2023-07-22T02:23:56;98015.88;;;17.64;62.98
59194;BME280;44967;48.598;15.650;2023-07-22T02:26:22;98023.97;;;17.62;62.99
59194;BME280;44967;48.598;15.650;2023-07-22T02:28:48;98029.31;;;17.62;63.26
59194;BME280;44967;48.598;15.650;2023-07-22T02:31:13;98029.53;;;17.73;62.63
59194;BME280;44967;48.598;15.650;2023-07-22T02:33:39;98030.06;;;17.78;62.81
59194;BME280;44967;48.598;15.650;2023-07-22T02:36:04;98037.06;;;17.81;62.75
59194;BME280;44967;48.598;15.650;2023-07-22T02:38:30;98045.56;;;17.73;62.90
59194;BME280;44967;48.598;15.650;2023-07-22T02:41:05;98038.69;;;17.69;63.22
59194;BME280;44967;48.598;15.650;2023-07-22T02:43:34;98044.41;;;17.77;63.38
59194;BME280;44967;48.598;15.650;2023-07-22T02:46:02;98055.47;;;17.71;63.61
59194;BME280;44967;48.598;15.650;2023-07-22T02:48:30;98055.69;;;17.68;63.80
59194;BME280;44967;48.598;15.650;2023-07-22T02:51:04;98066.16;;;17.71;63.66
59194;BME280;44967;48.598;15.650;2023-07-22T02:53:30;98068.66;;;17.74;63.93
59194;BME280;44967;48.598;15.650;2023-07-22T02:55:56;98062.91;;;17.66;63.67
59194;BME280;44967;48.598;15.650;2023-07-22T02:58:22;98068.84;;;17.71;64.02
59194;BME280;44967;48.598;15.650;2023-07-22T03:00:47;98079.44;;;17.73;63.67
59194;BME280;44967;48.598;15.650;2023-07-22T03:03:13;98076.50;;;17.77;63.00
59194;BME280;44967;48.598;15.650;2023-07-22T03:05:38;98072.38;;;17.72;63.70
59194;BME280;44967;48.598;15.650;2023-07-22T03:08:04;98068.75;;;17.73;63.18
59194;BME280;44967;48.598;15.650;2023-07-22T03:10:30;98082.88;;;17.75;63.10
59194;BME280;44967;48.598;15.650;2023-07-22T03:12:56;98088.22;;;17.75;62.99
59194;BME280;44967;48.598;15.650;2023-07-22T03:15:22;98088.13;;;17.62;62.63
59194;BME280;44967;48.598;15.650;2023-07-22T03:17:48;98088.34;;;17.73;63.17
59194;BME280;44967;48.598;15.650;2023-07-22T03:20:15;98095.97;;;17.79;62.64
59194;BME280;44967;48.598;15.650;2023-07-22T03:22:42;98093.38;;;17.78;62.10
59194;BME280;44967;48.598;15.650;2023-07-22T03:25:12;98097.88;;;17.77;62.61
59194;BME280;44967;48.598;15.650;2023-07-22T03:27:38;98100.44;;;17.79;62.10
59194;BME280;44967;48.598;15.650;2023-07-22T03:30:05;98103.78;;;17.82;62.43
59194;BME280;44967;48.598;15.650;2023-07-22T03:32:44;98103.97;;;17.79;62.25
59194;BME280;44967;48.598;15.650;2023-07-22T03:35:10;98111.03;;;17.80;61.70
59194;BME280;44967;48.598;15.650;2023-07-22T03:37:37;98095.97;;;17.79;61.96
59194;BME280;44967;48.598;15.650;2023-07-22T03:40:07;98102.72;;;17.71;62.21
59194;BME280;44967;48.598;15.650;2023-07-22T03:42:47;98097.38;;;17.71;61.89
59194;BME280;44967;48.598;15.650;2023-07-22T03:45:13;98114.94;;;17.61;61.77
59194;BME280;44967;48.598;15.650;2023-07-22T03:47:39;98115.53;;;17.66;61.90
59194;BME280;44967;48.598;15.650;2023-07-22T03:50:05;98111.63;;;17.57;61.63
59194;BME280;44967;48.598;15.650;2023-07-22T03:52:31;98117.75;;;17.43;62.37
59194;BME280;44967;48.598;15.650;2023-07-22T03:54:57;98113.88;;;17.49;62.26
59194;BME280;44967;48.598;15.650;2023-07-22T03:57:28;98118.63;;;17.44;62.52
59194;BME280;44967;48.598;15.650;2023-07-22T03:59:57;98114.22;;;17.29;63.02
59194;BME280;44967;48.598;15.650;2023-07-22T04:02:23;98120.50;;;17.28;63.01
59194;BME280;44967;48.598;15.650;2023-07-22T04:04:51;98115.22;;;17.26;63.10
59194;BME280;44967;48.598;15.650;2023-07-22T04:07:16;98112.94;;;17.20;63.35
59194;BME280;44967;48.598;15.650;2023-07-22T04:09:43;98123.25;;;17.26;62.71
59194;BME280;44967;48.598;15.650;2023-07-22T04:12:08;98125.69;;;17.15;63.62
59194;BME280;44967;48.598;15.650;2023-07-22T04:14:34;98122.81;;;17.04;62.50
59194;BME280;44967;48.598;15.650;2023-07-22T04:16:59;98135.91;;;17.09;62.78
59194;BME280;44967;48.598;15.650;2023-07-22T04:19:25;98137.63;;;17.10;62.99
59194;BME280;44967;48.598;15.650;2023-07-22T04:21:51;98138.16;;;17.01;62.73
59194;BME280;44967;48.598;15.650;2023-07-22T04:24:16;98135.41;;;17.02;62.34
59194;BME280;44967;48.598;15.650;2023-07-22T04:26:42;98127.56;;;16.99;61.81
59194;BME280;44967;48.598;15.650;2023-07-22T04:29:08;98130.81;;;17.04;61.59
59194;BME280;44967;48.598;15.650;2023-07-22T04:31:35;98133.22;;;17.09;61.52
59194;BME280;44967;48.598;15.650;2023-07-22T04:34:00;98133.69;;;17.01;62.04
59194;BME280;44967;48.598;15.650;2023-07-22T04:36:26;98141.97;;;16.96;62.53
59194;BME280;44967;48.598;15.650;2023-07-22T04:38:52;98137.28;;;17.00;61.81
59194;BME280;44967;48.598;15.650;2023-07-22T04:41:17;98144.84;;;17.08;61.73
59194;BME280;44967;48.598;15.650;2023-07-22T04:43:43;98150.00;;;17.11;62.05
59194;BME280;44967;48.598;15.650;2023-07-22T04:46:09;98155.53;;;17.08;61.93
59194;BME280;44967;48.598;15.650;2023-07-22T04:48:34;98158.81;;;17.13;61.59
59194;BME280;44967;48.598;15.650;2023-07-22T04:51:02;98166.72;;;17.14;62.19
59194;BME280;44967;48.598;15.650;2023-07-22T04:53:28;98163.00;;;17.17;61.59
59194;BME280;44967;48.598;15.650;2023-07-22T04:55:54;98172.91;;;17.15;61.38
59194;BME280;44967;48.598;15.650;2023-07-22T04:58:21;98176.28;;;17.18;61.75
59194;BME280;44967;48.598;15.650;2023-07-22T05:00:47;98166.84;;;17.27;61.85
59194;BME280;44967;48.598;15.650;2023-07-22T05:03:13;98161.22;;;17.31;61.17
59194;BME280;44967;48.598;15.650;2023-07-22T05:05:39;98160.41;;;17.45;60.84
59194;BME280;44967;48.598;15.650;2023-07-22T05:08:05;98162.88;;;17.34;60.88
59194;BME280;44967;48.598;15.650;2023-07-22T05:10:32;98160.03;;;17.37;60.90
59194;BME280;44967;48.598;15.650;2023-07-22T05:12:58;98163.28;;;17.42;60.75
59194;BME280;44967;48.598;15.650;2023-07-22T05:15:23;98166.16;;;17.23;61.05
59194;BME280;44967;48.598;15.650;2023-07-22T05:17:49;98160.88;;;17.37;60.64
59194;BME280;44967;48.598;15.650;2023-07-22T05:20:15;98158.88;;;17.41;60.88
59194;BME280;44967;48.598;15.650;2023-07-22T05:22:41;98160.97;;;17.36;61.21
59194;BME280;44967;48.598;15.650;2023-07-22T05:25:07;98161.84;;;17.51;60.55
59194;BME280;44967;48.598;15.650;2023-07-22T05:27:33;98168.06;;;17.51;60.16
59194;BME280;44967;48.598;15.650;2023-07-22T05:29:59;98166.66;;;17.60;59.55
59194;BME280;44967;48.598;15.650;2023-07-22T05:32:28;98165.63;;;17.62;60.04
59194;BME280;44967;48.598;15.650;2023-07-22T05:34:54;98167.47;;;17.62;60.01
59194;BME280;44967;48.598;15.650;2023-07-22T05:37:20;98162.59;;;17.68;59.57
59194;BME280;44967;48.598;15.650;2023-07-22T05:39:45;98173.66;;;17.76;59.13
59194;BME280;44967;48.598;15.650;2023-07-22T05:42:11;98168.13;;;17.79;58.46
59194;BME280;44967;48.598;15.650;2023-07-22T05:44:36;98169.19;;;17.91;57.04
59194;BME280;44967;48.598;15.650;2023-07-22T05:47:02;98173.78;;;17.89;57.27
59194;BME280;44967;48.598;15.650;2023-07-22T05:49:28;98171.78;;;17.93;57.28
59194;BME280;44967;48.598;15.650;2023-07-22T05:51:53;98170.78;;;17.94;56.97
59194;BME280;44967;48.598;15.650;2023-07-22T05:54:20;98176.66;;;18.00;56.43
59194;BME280;44967;48.598;15.650;2023-07-22T05:56:46;98163.66;;;18.08;55.96
59194;BME280;44967;48.598;15.650;2023-07-22T05:59:12;98150.38;;;18.07;55.96
59194;BME280;44967;48.598;15.650;2023-07-22T06:01:37;98154.00;;;18.20;55.73
59194;BME280;44967;48.598;15.650;2023-07-22T06:04:04;98153.50;;;18.27;55.42
59194;BME280;44967;48.598;15.650;2023-07-22T06:06:30;98144.53;;;18.28;55.27
59194;BME280;44967;48.598;15.650;2023-07-22T06:08:56;98143.25;;;18.34;52.94
59194;BME280;44967;48.598;15.650;2023-07-22T06:11:22;98153.69;;;18.38;52.61
59194;BME280;44967;48.598;15.650;2023-07-22T06:13:48;98148.97;;;18.42;52.58
59194;BME280;44967;48.598;15.650;2023-07-22T06:16:13;98148.22;;;18.54;52.05
59194;BME280;44967;48.598;15.650;2023-07-22T06:18:39;98148.03;;;18.57;51.51
59194;BME280;44967;48.598;15.650;2023-07-22T06:21:05;98144.41;;;18.58;51.54
59194;BME280;44967;48.598;15.650;2023-07-22T06:23:30;98148.50;;;18.64;50.77
59194;BME280;44967;48.598;15.650;2023-07-22T06:25:56;98146.53;;;18.80;50.88
59194;BME280;44967;48.598;15.650;2023-07-22T06:28:22;98149.16;;;18.94;49.61
59194;BME280;44967;48.598;15.650;2023-07-22T06:30:47;98158.06;;;18.95;50.31
59194;BME280;44967;48.598;15.650;2023-07-22T06:33:13;98149.06;;;18.96;49.14
59194;BME280;44967;48.598;15.650;2023-07-22T06:35:39;98160.00;;;19.05;48.97
59194;BME280;44967;48.598;15.650;2023-07-22T06:38:04;98152.81;;;19.06;48.85
59194;BME280;44967;48.598;15.650;2023-07-22T06:40:30;98155.94;;;19.12;49.02
59194;BME280;44967;48.598;15.650;2023-07-22T06:42:57;98167.47;;;19.27;48.87
59194;BME280;44967;48.598;15.650;2023-07-22T06:45:23;98160.94;;;19.31;47.53
59194;BME280;44967;48.598;15.650;2023-07-22T06:47:48;98168.25;;;19.42;47.82
59194;BME280;44967;48.598;15.650;2023-07-22T06:50:14;98179.03;;;19.54;47.88
59194;BME280;44967;48.598;15.650;2023-07-22T06:52:40;98170.34;;;19.63;46.77
59194;BME280;44967;48.598;15.650;2023-07-22T06:55:05;98173.69;;;19.67;46.95
59194;BME280;44967;48.598;15.650;2023-07-22T06:57:32;98166.38;;;19.69;46.99
59194;BME280;44967;48.598;15.650;2023-07-22T06:59:58;98181.63;;;19.81;46.26
59194;BME280;44967;48.598;15.650;2023-07-22T07:02:24;98183.44;;;19.81;46.25
59194;BME280;44967;48.598;15.650;2023-07-22T07:04:50;98177.53;;;19.88;46.44
59194;BME280;44967;48.598;15.650;2023-07-22T07:07:16;98187.00;;;20.06;45.64
59194;BME280;44967;48.598;15.650;2023-07-22T07:09:42;98196.75;;;20.20;44.99
59194;BME280;44967;48.598;15.650;2023-07-22T07:12:08;98196.44;;;20.24;44.51
59194;BME280;44967;48.598;15.650;2023-07-22T07:14:34;98190.44;;;20.46;44.42
59194;BME280;44967;48.598;15.650;2023-07-22T07:17:00;98191.25;;;20.59;43.50
59194;BME280;44967;48.598;15.650;2023-07-22T07:19:27;98183.69;;;21.01;42.40
59194;BME280;44967;48.598;15.650;2023-07-22T07:21:53;98189.81;;;21.50;41.62
59194;BME280;44967;48.598;15.650;2023-07-22T07:24:18;98185.81;;;22.02;41.48
59194;BME280;44967;48.598;15.650;2023-07-22T07:26:44;98184.34;;;22.76;39.23
59194;BME280;44967;48.598;15.650;2023-07-22T07:29:10;98196.22;;;23.70;37.60
59194;BME280;44967;48.598;15.650;2023-07-22T07:31:37;98184.19;;;24.86;33.86
59194;BME280;44967;48.598;15.650;2023-07-22T07:34:03;98187.28;;;25.89;31.79
59194;BME280;44967;48.598;15.650;2023-07-22T07:36:29;98189.16;;;26.81;30.59
59194;BME280;44967;48.598;15.650;2023-07-22T07:38:54;98186.41;;;27.71;28.16
59194;BME280;44967;48.598;15.650;2023-07-22T07:41:21;98194.09;;;26.95;28.43
59194;BME280;44967;48.598;15.650;2023-07-22T07:43:46;98193.28;;;27.12;28.85
59194;BME280;44967;48.598;15.650;2023-07-22T07:48:44;98193.28;;;27.57;27.58
59194;BME280;44967;48.598;15.650;2023-07-22T07:51:11;98188.56;;;27.85;27.85
59194;BME280;44967;48.598;15.650;2023-07-22T07:53:37;98194.63;;;27.97;27.77
59194;BME280;44967;48.598;15.650;2023-07-22T07:56:03;98199.16;;;27.71;27.62
59194;BME280;44967;48.598;15.650;2023-07-22T07:58:28;98187.91;;;28.27;26.85
59194;BME280;44967;48.598;15.650;2023-07-22T08:00:54;98190.56;;;28.19;26.64
59194;BME280;44967;48.598;15.650;2023-07-22T08:03:20;98187.78;;;28.10;25.88
59194;BME280;44967;48.598;15.650;2023-07-22T08:05:46;98193.81;;;27.61;26.99
59194;BME280;44967;48.598;15.650;2023-07-22T08:08:12;98203.13;;;28.45;25.97
59194;BME280;44967;48.598;15.650;2023-07-22T08:10:37;98196.09;;;28.09;26.13
59194;BME280;44967;48.598;15.650;2023-07-22T08:13:04;98195.63;;;28.99;25.17
59194;BME280;44967;48.598;15.650;2023-07-22T08:15:30;98196.88;;;29.21;23.77
59194;BME280;44967;48.598;15.650;2023-07-22T08:17:55;98195.34;;;28.50;26.05
59194;BME280;44967;48.598;15.650;2023-07-22T08:20:21;98201.97;;;28.48;25.92
59194;BME280;44967;48.598;15.650;2023-07-22T08:22:47;98193.66;;;29.25;25.18
59194;BME280;44967;48.598;15.650;2023-07-22T08:25:13;98194.84;;;29.23;25.02
59194;BME280;44967;48.598;15.650;2023-07-22T08:27:39;98186.00;;;28.53;25.07
59194;BME280;44967;48.598;15.650;2023-07-22T08:30:05;98196.88;;;28.53;25.63
59194;BME280;44967;48.598;15.650;2023-07-22T08:32:31;98191.72;;;28.42;25.19
59194;BME280;44967;48.598;15.650;2023-07-22T08:34:56;98194.59;;;28.66;24.80
59194;BME280;44967;48.598;15.650;2023-07-22T08:37:22;98195.50;;;28.75;24.90
59194;BME280;44967;48.598;15.650;2023-07-22T08:39:47;98189.88;;;28.76;24.47
59194;BME280;44967;48.598;15.650;2023-07-22T08:42:14;98190.78;;;29.27;24.74
59194;BME280;44967;48.598;15.650;2023-07-22T08:44:46;98187.75;;;29.38;24.74
59194;BME280;44967;48.598;15.650;2023-07-22T08:47:15;98200.91;;;29.83;24.86
59194;BME280;44967;48.598;15.650;2023-07-22T08:49:46;98199.81;;;28.85;24.49
59194;BME280;44967;48.598;15.650;2023-07-22T08:52:15;98199.94;;;28.50;25.45
59194;BME280;44967;48.598;15.650;2023-07-22T08:54:41;98193.69;;;29.33;25.08
59194;BME280;44967;48.598;15.650;2023-07-22T08:57:09;98189.72;;;28.44;24.78
59194;BME280;44967;48.598;15.650;2023-07-22T08:59:35;98206.22;;;28.76;24.87
59194;BME280;44967;48.598;15.650;2023-07-22T09:02:01;98203.31;;;29.20;24.53
59194;BME280;44967;48.598;15.650;2023-07-22T09:04:28;98200.31;;;28.89;24.47
59194;BME280;44967;48.598;15.650;2023-07-22T09:06:54;98198.09;;;28.84;25.56
59194;BME280;44967;48.598;15.650;2023-07-22T09:09:21;98191.19;;;28.98;25.79
59194;BME280;44967;48.598;15.650;2023-07-22T09:11:48;98194.09;;;29.04;24.63
59194;BME280;44967;48.598;15.650;2023-07-22T09:14:15;98192.13;;;29.23;25.06
59194;BME280;44967;48.598;15.650;2023-07-22T09:16:42;98194.38;;;28.93;24.39
59194;BME280;44967;48.598;15.650;2023-07-22T09:19:08;98194.34;;;28.85;25.84
59194;BME280;44967;48.598;15.650;2023-07-22T09:21:34;98189.94;;;28.84;25.07
59194;BME280;44967;48.598;15.650;2023-07-22T09:24:01;98198.97;;;28.59;25.28
59194;BME280;44967;48.598;15.650;2023-07-22T09:26:32;98190.13;;;28.31;25.35
59194;BME280;44967;48.598;15.650;2023-07-22T09:28:58;98198.88;;;28.17;24.63
59194;BME280;44967;48.598;15.650;2023-07-22T09:31:26;98193.47;;;28.77;24.48
59194;BME280;44967;48.598;15.650;2023-07-22T09:33:53;98197.91;;;28.52;24.94
59194;BME280;44967;48.598;15.650;2023-07-22T09:36:19;98200.94;;;28.75;25.21
59194;BME280;44967;48.598;15.650;2023-07-22T09:38:47;98197.72;;;28.71;24.88
59194;BME280;44967;48.598;15.650;2023-07-22T09:41:28;98194.28;;;29.03;25.11
59194;BME280;44967;48.598;15.650;2023-07-22T09:43:54;98186.03;;;28.61;25.22
59194;BME280;44967;48.598;15.650;2023-07-22T09:46:20;98190.06;;;27.80;25.95
59194;BME280;44967;48.598;15.650;2023-07-22T09:48:46;98184.50;;;27.01;27.25
59194;BME280;44967;48.598;15.650;2023-07-22T09:51:15;98186.53;;;27.16;26.77
59194;BME280;44967;48.598;15.650;2023-07-22T09:53:46;98173.56;;;27.55;25.97
59194;BME280;44967;48.598;15.650;2023-07-22T09:56:11;98187.34;;;27.62;26.72
59194;BME280;44967;48.598;15.650;2023-07-22T09:58:38;98183.78;;;27.79;26.11
59194;BME280;44967;48.598;15.650;2023-07-22T10:01:04;98181.91;;;27.80;25.90
59194;BME280;44967;48.598;15.650;2023-07-22T10:03:31;98181.22;;;27.60;26.01
59194;BME280;44967;48.598;15.650;2023-07-22T10:06:00;98173.59;;;27.28;26.77
59194;BME280;44967;48.598;15.650;2023-07-22T10:08:30;98167.22;;;27.90;25.46
59194;BME280;44967;48.598;15.650;2023-07-22T10:10:59;98171.50;;;27.93;25.37
59194;BME280;44967;48.598;15.650;2023-07-22T10:13:26;98155.63;;;27.62;24.85
59194;BME280;44967;48.598;15.650;2023-07-22T10:15:52;98155.31;;;28.09;25.31
59194;BME280;44967;48.598;15.650;2023-07-22T10:18:21;98156.56;;;28.15;23.63
59194;BME280;44967;48.598;15.650;2023-07-22T10:20:48;98153.69;;;28.16;23.97
59194;BME280;44967;48.598;15.650;2023-07-22T10:23:14;98156.16;;;27.66;25.42
59194;BME280;44967;48.598;15.650;2023-07-22T10:25:42;98157.78;;;27.77;25.60
59194;BME280;44967;48.598;15.650;2023-07-22T10:28:09;98151.19;;;27.61;25.59
59194;BME280;44967;48.598;15.650;2023-07-22T10:30:36;98166.78;;;27.77;26.10
59194;BME280;44967;48.598;15.650;2023-07-22T10:33:02;98149.66;;;27.77;25.71
59194;BME280;44967;48.598;15.650;2023-07-22T10:38:16;98141.03;;;27.28;24.63
59194;BME280;44967;48.598;15.650;2023-07-22T10:40:52;98144.88;;;27.08;24.88
59194;BME280;44967;48.598;15.650;2023-07-22T10:43:27;98135.59;;;27.28;24.57
59194;BME280;44967;48.598;15.650;2023-07-22T10:45:57;98140.63;;;27.76;25.04
59194;BME280;44967;48.598;15.650;2023-07-22T10:48:26;98144.16;;;27.94;24.28
59194;BME280;44967;48.598;15.650;2023-07-22T10:51:02;98122.00;;;28.25;24.01
59194;BME280;44967;48.598;15.650;2023-07-22T10:53:30;98120.38;;;28.14;23.83
59194;BME280;44967;48.598;15.650;2023-07-22T10:56:21;98125.53;;;28.25;24.46
59194;BME280;44967;48.598;15.650;2023-07-22T11:01:21;98122.56;;;28.36;23.83
59194;BME280;44967;48.598;15.650;2023-07-22T11:04:09;98122.31;;;28.30;22.44
59194;BME280;44967;48.598;15.650;2023-07-22T11:11:54;98118.41;;;28.24;23.00
59194;BME280;44967;48.598;15.650;2023-07-22T11:14:23;98112.63;;;28.61;23.00
59194;BME280;44967;48.598;15.650;2023-07-22T11:16:49;98115.44;;;28.77;22.57
59194;BME280;44967;48.598;15.650;2023-07-22T11:19:17;98105.84;;;28.65;23.19
59194;BME280;44967;48.598;15.650;2023-07-22T11:21:45;98116.00;;;28.55;22.66
59194;BME280;44967;48.598;15.650;2023-07-22T11:24:11;98115.19;;;28.29;22.90
59194;BME280;44967;48.598;15.650;2023-07-22T11:26:37;98101.44;;;28.30;23.22
59194;BME280;44967;48.598;15.650;2023-07-22T11:29:04;98098.63;;;28.40;23.33
59194;BME280;44967;48.598;15.650;2023-07-22T11:31:31;98112.41;;;28.13;24.07
59194;BME280;44967;48.598;15.650;2023-07-22T11:33:57;98098.69;;;27.96;24.21
59194;BME280;44967;48.598;15.650;2023-07-22T11:36:23;98102.63;;;27.76;24.07
59194;BME280;44967;48.598;15.650;2023-07-22T11:38:48;98098.19;;;27.75;24.67
59194;BME280;44967;48.598;15.650;2023-07-22T11:41:14;98099.72;;;27.52;24.50
59194;BME280;44967;48.598;15.650;2023-07-22T11:43:40;98104.28;;;27.34;24.93
59194;BME280;44967;48.598;15.650;2023-07-22T11:46:06;98097.69;;;27.54;24.44
59194;BME280;44967;48.598;15.650;2023-07-22T11:48:32;98084.56;;;27.67;24.32
59194;BME280;44967;48.598;15.650;2023-07-22T11:50:59;98089.84;;;27.69;24.55
59194;BME280;44967;48.598;15.650;2023-07-22T11:53:28;98075.78;;;27.73;24.43
59194;BME280;44967;48.598;15.650;2023-07-22T11:55:57;98071.47;;;27.88;24.93
59194;BME280;44967;48.598;15.650;2023-07-22T11:58:26;98073.41;;;27.78;24.54
59194;BME280;44967;48.598;15.650;2023-07-22T12:01:22;98075.50;;;27.84;24.60
59194;BME280;44967;48.598;15.650;2023-07-22T12:03:49;98067.13;;;27.52;24.39
59194;BME280;44967;48.598;15.650;2023-07-22T12:06:15;98063.25;;;27.54;24.93
59194;BME280;44967;48.598;15.650;2023-07-22T12:08:48;98063.50;;;27.95;25.13
59194;BME280;44967;48.598;15.650;2023-07-22T12:11:24;98058.03;;;27.61;24.71
59194;BME280;44967;48.598;15.650;2023-07-22T12:14:10;98055.13;;;27.80;25.05
59194;BME280;44967;48.598;15.650;2023-07-22T12:16:38;98057.06;;;27.96;24.51
59194;BME280;44967;48.598;15.650;2023-07-22T12:19:04;98050.03;;;28.11;24.56
59194;BME280;44967;48.598;15.650;2023-07-22T12:21:32;98048.59;;;28.25;24.28
59194;BME280;44967;48.598;15.650;2023-07-22T12:23:58;98041.59;;;28.64;23.16
59194;BME280;44967;48.598;15.650;2023-07-22T12:26:24;98043.72;;;28.36;22.94
59194;BME280;44967;48.598;15.650;2023-07-22T12:28:49;98043.91;;;28.43;23.74
59194;BME280;44967;48.598;15.650;2023-07-22T12:31:15;98043.94;;;28.51;23.72
59194;BME280;44967;48.598;15.650;2023-07-22T12:33:42;98037.44;;;28.36;23.05
59194;BME280;44967;48.598;15.650;2023-07-22T12:36:07;98046.47;;;28.10;24.02
59194;BME280;44967;48.598;15.650;2023-07-22T12:38:33;98035.28;;;28.14;23.22
59194;BME280;44967;48.598;15.650;2023-07-22T12:41:00;98039.94;;;28.29;23.90
59194;BME280;44967;48.598;15.650;2023-07-22T12:43:26;98041.22;;;28.17;24.12
59194;BME280;44967;48.598;15.650;2023-07-22T12:45:52;98047.00;;;27.88;24.42
59194;BME280;44967;48.598;15.650;2023-07-22T12:48:18;98049.69;;;27.80;24.35
59194;BME280;44967;48.598;15.650;2023-07-22T12:50:44;98039.16;;;27.77;24.96
59194;BME280;44967;48.598;15.650;2023-07-22T12:53:10;98036.16;;;27.88;24.87
59194;BME280;44967;48.598;15.650;2023-07-22T12:55:36;98033.72;;;27.85;25.21
59194;BME280;44967;48.598;15.650;2023-07-22T12:58:01;98029.28;;;27.76;25.44
59194;BME280;44967;48.598;15.650;2023-07-22T13:00:28;98040.72;;;27.88;24.73
59194;BME280;44967;48.598;15.650;2023-07-22T13:02:54;98036.78;;;27.82;24.28